createdAt,value
2019-01-12T00:01:36.297Z,13.20
2019-01-12T00:04:06.566Z,12.47
2019-01-12T00:06:36.832Z,11.73
2019-01-12T00:09:08.367Z,12.73
2019-01-12T00:11:38.599Z,12.17
2019-01-12T00:14:08.887Z,13.30
2019-01-12T00:16:39.158Z,13.57
2019-01-12T00:19:09.618Z,13.27
2019-01-12T00:21:39.829Z,12.67
2019-01-12T00:24:10.069Z,13.57
2019-01-12T00:26:40.339Z,11.77
2019-01-12T00:29:10.707Z,12.67
2019-01-12T00:31:40.910Z,12.00
2019-01-12T00:34:11.169Z,10.93
2019-01-12T00:36:41.423Z,10.67
2019-01-12T00:39:11.654Z,10.03
2019-01-12T00:41:41.882Z,10.80
2019-01-12T00:44:12.147Z,10.20
2019-01-12T00:46:42.449Z,9.57
2019-01-12T00:49:12.698Z,9.37
2019-01-12T00:51:42.946Z,8.97
2019-01-12T00:54:13.333Z,9.23
2019-01-12T00:56:43.634Z,9.20
2019-01-12T00:59:18.530Z,8.40
2019-01-12T01:01:48.810Z,9.50
2019-01-12T01:04:19.055Z,8.03
2019-01-12T01:06:49.371Z,8.77
2019-01-12T01:09:19.558Z,8.07
2019-01-12T01:11:49.778Z,8.73
2019-01-12T01:14:20.030Z,8.23
2019-01-12T01:16:50.290Z,9.47
2019-01-12T01:19:20.524Z,9.20
2019-01-12T01:21:50.791Z,9.00
2019-01-12T01:24:21.031Z,10.93
2019-01-12T01:26:51.398Z,10.27
2019-01-12T01:29:21.654Z,11.13
2019-01-12T01:31:51.962Z,10.07
2019-01-12T01:34:22.184Z,10.40
2019-01-12T01:36:52.474Z,11.67
2019-01-12T01:39:22.692Z,10.77
2019-01-12T01:41:52.968Z,10.20
2019-01-12T01:44:23.292Z,10.50
2019-01-12T01:46:54.529Z,10.50
2019-01-12T01:49:24.828Z,9.83
2019-01-12T01:51:55.071Z,9.80
2019-01-12T01:54:25.343Z,10.53
2019-01-12T01:56:55.621Z,9.70
2019-01-12T01:59:25.878Z,10.50
2019-01-12T02:01:56.105Z,10.30
2019-01-12T02:04:26.383Z,10.50
2019-01-12T02:06:56.684Z,10.23
2019-01-12T02:09:26.962Z,10.27
2019-01-12T02:11:57.194Z,10.77
2019-01-12T02:14:27.450Z,10.83
2019-01-12T02:16:57.682Z,10.90
2019-01-12T02:19:28.020Z,11.53
2019-01-12T02:21:58.301Z,11.40
2019-01-12T02:24:28.538Z,10.37
2019-01-12T02:26:58.768Z,10.00
2019-01-12T02:29:29.021Z,9.30
2019-01-12T02:31:59.291Z,10.17
2019-01-12T02:34:29.568Z,10.43
2019-01-12T02:36:59.864Z,10.53
2019-01-12T02:39:30.109Z,10.33
2019-01-12T02:42:00.367Z,10.13
2019-01-12T02:44:30.683Z,11.07
2019-01-12T02:47:01.924Z,10.97
2019-01-12T02:49:32.163Z,11.00
2019-01-12T02:52:03.982Z,12.33
2019-01-12T02:54:34.421Z,12.63
2019-01-12T02:57:04.773Z,12.67
2019-01-12T02:59:35.195Z,13.60
2019-01-12T03:02:06.169Z,13.43
2019-01-12T03:04:42.430Z,13.43
2019-01-12T03:07:12.723Z,14.03
2019-01-12T03:09:42.911Z,13.93
2019-01-12T03:12:13.147Z,15.03
2019-01-12T03:14:43.598Z,14.17
2019-01-12T03:20:52.642Z,14.23
2019-01-12T03:23:22.871Z,15.27
2019-01-12T03:25:54.073Z,15.13
2019-01-12T03:28:24.308Z,15.17
2019-01-12T03:30:54.551Z,14.97
2019-01-12T03:33:25.795Z,14.80
2019-01-12T03:35:55.994Z,14.90
2019-01-12T03:38:27.145Z,14.47
2019-01-12T03:40:57.479Z,16.30
2019-01-12T03:43:27.743Z,14.37
2019-01-12T03:45:57.939Z,14.97
2019-01-12T03:48:28.262Z,14.57
2019-01-12T03:50:58.483Z,13.80
2019-01-12T03:53:28.727Z,14.60
2019-01-12T03:55:58.938Z,13.47
2019-01-12T03:58:29.194Z,13.73
2019-01-12T04:00:59.497Z,13.47
2019-01-12T04:03:29.795Z,13.70
2019-01-12T04:05:59.993Z,13.70
2019-01-12T04:08:30.199Z,13.97
2019-01-12T04:11:00.399Z,14.20
2019-01-12T04:13:30.654Z,14.23
2019-01-12T04:16:00.874Z,13.80
2019-01-12T04:18:31.153Z,16.07
2019-01-12T04:21:01.363Z,15.67
2019-01-12T04:23:31.650Z,15.93
2019-01-12T04:26:01.870Z,15.67
2019-01-12T04:28:32.117Z,15.57
2019-01-12T04:31:02.415Z,15.77
2019-01-12T04:33:32.673Z,15.93
2019-01-12T04:36:02.899Z,15.50
2019-01-12T04:38:33.182Z,14.40
2019-01-12T04:41:03.393Z,15.10
2019-01-12T04:43:33.653Z,15.57
2019-01-12T04:46:04.095Z,14.10
2019-01-12T04:48:34.305Z,14.10
2019-01-12T04:51:04.579Z,14.67
2019-01-12T04:53:34.765Z,14.80
2019-01-12T04:56:05.109Z,15.00
2019-01-12T04:58:35.322Z,14.63
2019-01-12T05:01:05.580Z,13.93
2019-01-12T05:03:35.813Z,14.47
2019-01-12T05:06:06.053Z,12.43
2019-01-12T05:08:36.268Z,12.47
2019-01-12T05:11:07.388Z,11.53
2019-01-12T05:13:37.648Z,12.10
2019-01-12T05:16:07.896Z,11.90
2019-01-12T05:18:38.102Z,12.13
2019-01-12T05:21:08.410Z,12.17
2019-01-12T05:23:38.656Z,11.77
2019-01-12T05:26:08.881Z,12.03
2019-01-12T05:28:39.085Z,12.23
2019-01-12T05:31:09.283Z,11.70
2019-01-12T05:33:39.489Z,11.33
2019-01-12T05:36:09.763Z,11.13
2019-01-12T05:38:40.022Z,12.00
2019-01-12T05:41:10.279Z,11.57
2019-01-12T05:43:40.594Z,12.73
2019-01-12T05:46:10.846Z,12.20
2019-01-12T05:48:41.045Z,11.33
2019-01-12T05:51:11.274Z,12.80
2019-01-12T05:53:41.518Z,12.13
2019-01-12T05:56:43.673Z,11.67
2019-01-12T06:02:57.859Z,12.50
2019-01-12T06:05:46.683Z,11.67
2019-01-12T06:08:16.918Z,11.60
2019-01-12T06:10:47.153Z,11.67
2019-01-12T06:13:30.215Z,11.60
2019-01-12T06:19:32.273Z,12.17
2019-01-12T06:25:30.986Z,10.50
2019-01-12T06:31:12.417Z,10.50
2019-01-12T06:43:51.622Z,8.00
2019-01-12T06:49:48.244Z,7.30
2019-01-12T06:52:18.458Z,6.87
2019-01-12T06:54:48.750Z,6.83
2019-01-12T06:57:21.797Z,6.63
2019-01-12T06:59:52.090Z,6.70
2019-01-12T07:02:22.298Z,5.47
2019-01-12T07:04:58.395Z,5.20
2019-01-12T07:10:09.147Z,5.40
2019-01-12T07:12:39.337Z,5.20
2019-01-12T07:15:11.164Z,5.33
2019-01-12T07:17:41.389Z,5.73
2019-01-12T07:20:14.237Z,6.27
2019-01-12T07:26:20.823Z,6.97
2019-01-12T07:32:14.531Z,6.77
2019-01-12T07:34:57.952Z,8.07
2019-01-12T07:37:28.270Z,7.23
2019-01-12T07:40:08.264Z,8.00
2019-01-12T07:42:38.532Z,8.30
2019-01-12T07:45:10.014Z,7.87
2019-01-12T07:47:40.244Z,8.67
2019-01-12T07:50:11.667Z,9.93
2019-01-12T07:52:41.891Z,8.77
2019-01-12T07:55:12.203Z,9.70
2019-01-12T07:57:42.451Z,10.33
2019-01-12T08:00:15.988Z,9.37
2019-01-12T08:02:48.353Z,10.50
2019-01-12T08:09:00.286Z,10.77
2019-01-12T08:11:30.529Z,11.53
2019-01-12T08:14:02.568Z,11.33
2019-01-12T08:16:32.806Z,12.03
2019-01-12T08:19:03.078Z,12.50
2019-01-12T08:21:34.920Z,13.93
2019-01-12T08:24:05.203Z,14.50
2019-01-12T08:26:35.544Z,14.90
2019-01-12T08:29:05.843Z,15.40
2019-01-12T08:31:36.183Z,15.60
2019-01-12T08:34:06.435Z,15.40
2019-01-12T08:36:55.567Z,16.00
2019-01-12T08:39:25.921Z,16.53
2019-01-12T08:41:56.207Z,16.07
2019-01-12T08:44:26.482Z,17.60
2019-01-12T08:46:56.769Z,18.07
2019-01-12T08:49:28.066Z,15.20
2019-01-12T08:51:58.282Z,14.60
2019-01-12T08:54:29.134Z,15.37
2019-01-12T08:56:59.477Z,14.97
2019-01-12T08:59:29.822Z,14.53
2019-01-12T09:02:00.104Z,14.50
2019-01-12T09:04:30.415Z,14.90
2019-01-12T09:07:00.739Z,15.20
2019-01-12T09:09:31.091Z,15.20
2019-01-12T09:12:01.338Z,14.90
2019-01-12T09:14:31.612Z,14.83
2019-01-12T09:17:01.977Z,15.80
2019-01-12T09:19:32.357Z,16.10
2019-01-12T09:22:02.607Z,16.93
2019-01-12T09:24:32.910Z,15.57
2019-01-12T09:27:03.190Z,16.27
2019-01-12T09:29:35.656Z,14.37
2019-01-12T09:32:06.358Z,14.97
2019-01-12T09:34:36.719Z,14.73
2019-01-12T09:37:07.112Z,14.77
2019-01-12T09:39:37.403Z,13.80
2019-01-12T09:42:08.187Z,13.83
2019-01-12T09:44:38.474Z,12.67
2019-01-12T09:47:08.930Z,11.57
2019-01-12T09:49:39.204Z,12.57
2019-01-12T09:52:09.863Z,12.10
2019-01-12T09:54:40.123Z,11.50
2019-01-12T09:57:10.704Z,11.93
2019-01-12T09:59:41.011Z,11.17
2019-01-12T10:02:11.276Z,11.03
2019-01-12T10:04:41.603Z,11.27
2019-01-12T10:07:11.907Z,11.00
2019-01-12T10:09:42.207Z,11.37
2019-01-12T10:12:12.515Z,10.77
2019-01-12T10:14:42.810Z,10.73
2019-01-12T10:17:13.104Z,10.47
2019-01-12T10:19:43.462Z,8.90
2019-01-12T10:22:13.732Z,9.77
2019-01-12T10:24:44.050Z,10.30
2019-01-12T10:27:14.393Z,9.50
2019-01-12T10:29:44.802Z,9.60
2019-01-12T10:32:15.097Z,9.07
2019-01-12T10:34:45.393Z,9.63
2019-01-12T10:37:16.686Z,9.90
2019-01-12T10:39:47.050Z,9.60
2019-01-12T10:42:17.334Z,8.70
2019-01-12T10:44:47.600Z,9.27
2019-01-12T10:47:17.898Z,8.70
2019-01-12T10:49:48.185Z,9.10
2019-01-12T10:52:18.658Z,8.37
2019-01-12T10:54:51.275Z,8.60
2019-01-12T10:57:21.794Z,8.17
2019-01-12T10:59:52.091Z,8.70
2019-01-12T11:02:22.367Z,7.73
2019-01-12T11:04:52.674Z,9.13
2019-01-12T11:07:22.975Z,8.70
2019-01-12T11:09:54.219Z,8.50
2019-01-12T11:12:24.853Z,8.50
2019-01-12T11:14:55.179Z,9.00
2019-01-12T11:17:25.474Z,9.17
2019-01-12T11:19:55.805Z,8.10
2019-01-12T11:22:28.449Z,9.30
2019-01-12T11:25:01.657Z,8.83
2019-01-12T11:27:31.929Z,8.43
2019-01-12T11:30:02.253Z,8.90
2019-01-12T11:32:32.944Z,9.27
2019-01-12T11:35:03.264Z,9.53
2019-01-12T11:37:33.555Z,9.77
2019-01-12T11:40:04.646Z,8.80
2019-01-12T11:42:34.920Z,9.17
2019-01-12T11:45:06.214Z,8.77
2019-01-12T11:47:36.490Z,10.03
2019-01-12T11:50:09.039Z,9.50
2019-01-12T11:52:39.339Z,9.17
2019-01-12T11:55:10.567Z,9.77
2019-01-12T11:57:40.881Z,9.93
2019-01-12T12:00:23.816Z,8.90
2019-01-12T12:02:54.277Z,9.67
2019-01-12T12:05:24.705Z,9.33
2019-01-12T12:07:55.063Z,8.97
2019-01-12T12:10:25.521Z,9.17
2019-01-12T12:12:55.927Z,9.73
2019-01-12T12:15:26.279Z,8.93
2019-01-12T12:17:56.633Z,8.87
2019-01-12T12:20:28.213Z,8.23
2019-01-12T12:22:58.481Z,8.87
2019-01-12T12:25:28.882Z,9.07
2019-01-12T12:27:59.180Z,9.87
2019-01-12T12:30:32.686Z,9.03
2019-01-12T12:33:02.946Z,9.30
2019-01-12T12:35:37.657Z,8.10
2019-01-12T12:38:05.888Z,8.13
2019-01-12T12:40:36.209Z,9.13
2019-01-12T12:43:06.477Z,8.17
2019-01-12T12:45:37.402Z,7.97
2019-01-12T12:48:07.780Z,8.57
2019-01-12T12:50:38.090Z,8.33
2019-01-12T12:53:08.370Z,8.17
2019-01-12T12:55:38.670Z,8.30
2019-01-12T12:58:08.929Z,8.43
2019-01-12T13:00:39.205Z,8.57
2019-01-12T13:03:09.463Z,7.73
2019-01-12T13:05:39.767Z,7.60
2019-01-12T13:08:12.011Z,7.07
2019-01-12T13:10:42.317Z,6.83
2019-01-12T13:13:12.573Z,7.97
2019-01-12T13:15:42.945Z,6.60
2019-01-12T13:18:13.165Z,6.00
2019-01-12T13:20:44.518Z,5.57
2019-01-12T13:23:14.759Z,5.87
2019-01-12T13:25:45.127Z,5.40
2019-01-12T13:28:15.353Z,5.40
2019-01-12T13:30:45.674Z,5.10
2019-01-12T13:33:15.978Z,4.27
2019-01-12T13:35:47.145Z,4.40
2019-01-12T13:38:17.450Z,4.30
2019-01-12T13:40:47.727Z,3.80
2019-01-12T13:43:18.045Z,3.90
2019-01-12T13:45:48.318Z,3.13
2019-01-12T13:48:18.567Z,3.63
2019-01-12T13:50:48.842Z,3.60
2019-01-12T13:53:19.115Z,3.80
2019-01-12T13:55:49.376Z,3.73
2019-01-12T13:58:19.610Z,3.43
2019-01-12T14:00:49.872Z,3.50
2019-01-12T14:03:20.111Z,3.30
2019-01-12T14:05:50.331Z,3.13
2019-01-12T14:08:20.669Z,3.40
2019-01-12T14:10:50.984Z,3.30
2019-01-12T14:13:21.313Z,2.97
2019-01-12T14:15:51.510Z,2.97
2019-01-12T14:18:22.738Z,2.90
2019-01-12T14:20:53.167Z,2.53
2019-01-12T14:23:23.449Z,2.90
2019-01-12T14:25:53.710Z,2.60
2019-01-12T14:28:24.090Z,2.80
2019-01-12T14:30:54.350Z,2.90
2019-01-12T14:33:24.587Z,3.27
2019-01-12T14:35:54.844Z,2.60
2019-01-12T14:38:25.211Z,2.70
2019-01-12T14:40:55.470Z,2.40
2019-01-12T14:43:25.763Z,2.23
2019-01-12T14:45:56.033Z,2.67
2019-01-12T14:48:26.383Z,2.77
2019-01-12T14:50:56.702Z,2.43
2019-01-12T14:53:27.090Z,2.83
2019-01-12T14:55:57.473Z,2.60
2019-01-12T14:58:27.732Z,2.47
2019-01-12T15:00:58.071Z,2.40
2019-01-12T15:03:28.449Z,2.20
2019-01-12T15:05:58.732Z,2.27
2019-01-12T15:08:29.089Z,2.03
2019-01-12T15:10:59.582Z,2.07
2019-01-12T15:13:29.838Z,2.17
2019-01-12T15:16:00.226Z,2.20
2019-01-12T15:18:30.449Z,1.90
2019-01-12T15:21:04.229Z,2.20
2019-01-12T15:23:34.958Z,2.00
2019-01-12T15:26:05.313Z,2.10
2019-01-12T15:28:35.502Z,2.00
2019-01-12T15:31:05.738Z,2.20
2019-01-12T15:33:35.974Z,2.20
2019-01-12T15:36:06.341Z,1.70
2019-01-12T15:38:36.607Z,1.63
2019-01-12T15:41:06.921Z,2.37
2019-01-12T15:43:37.222Z,2.10
2019-01-12T15:46:07.482Z,1.67
2019-01-12T15:48:37.722Z,1.77
2019-01-12T15:51:07.978Z,2.30
2019-01-12T15:53:38.222Z,1.70
2019-01-12T15:56:09.504Z,1.90
2019-01-12T15:58:39.721Z,1.90
2019-01-12T16:01:09.980Z,1.90
2019-01-12T16:03:40.251Z,1.77
2019-01-12T16:06:10.475Z,2.17
2019-01-12T16:08:40.792Z,2.23
2019-01-12T16:11:11.066Z,2.20
2019-01-12T16:13:41.340Z,2.00
2019-01-12T16:16:13.317Z,2.50
2019-01-12T16:19:11.420Z,2.63
2019-01-12T16:21:44.683Z,3.20
2019-01-12T16:24:15.276Z,3.00
2019-01-12T16:26:45.683Z,3.47
2019-01-12T16:29:15.984Z,3.47
2019-01-12T16:31:49.857Z,4.80
2019-01-12T16:34:20.560Z,4.03
2019-01-12T16:36:51.244Z,4.60
2019-01-12T16:39:21.607Z,5.00
2019-01-12T16:41:51.869Z,5.67
2019-01-12T16:44:22.194Z,5.73
2019-01-12T16:46:52.457Z,6.40
2019-01-12T16:49:22.758Z,5.77
2019-01-12T16:51:53.002Z,6.57
2019-01-12T16:54:24.447Z,7.10
2019-01-12T16:56:54.732Z,6.10
2019-01-12T16:59:25.007Z,6.83
2019-01-12T17:01:55.218Z,6.47
2019-01-12T17:04:36.980Z,6.90
2019-01-12T17:07:07.775Z,6.17
2019-01-12T17:09:38.068Z,5.83
2019-01-12T17:12:08.289Z,5.80
2019-01-12T17:14:38.543Z,5.50
2019-01-12T17:17:08.896Z,5.37
2019-01-12T17:19:39.178Z,5.40
2019-01-12T17:22:10.300Z,5.37
2019-01-12T17:24:40.852Z,5.27
2019-01-12T17:27:13.189Z,5.30
2019-01-12T17:29:43.624Z,5.33
2019-01-12T17:32:14.018Z,5.00
2019-01-12T17:34:45.165Z,4.27
2019-01-12T17:37:19.042Z,4.67
2019-01-12T17:39:49.365Z,4.27
2019-01-12T17:42:19.650Z,3.93
2019-01-12T17:44:50.387Z,4.17
2019-01-12T17:47:20.730Z,4.23
2019-01-12T17:49:51.138Z,4.60
2019-01-12T17:52:21.450Z,5.10
2019-01-12T17:54:51.794Z,4.60
2019-01-12T17:57:22.071Z,5.27
2019-01-12T17:59:52.331Z,5.83
2019-01-12T18:02:22.587Z,5.77
2019-01-12T18:04:52.810Z,6.47
2019-01-12T18:07:23.162Z,6.23
2019-01-12T18:09:53.506Z,6.17
2019-01-12T18:12:23.843Z,5.30
2019-01-12T18:14:54.086Z,5.47
2019-01-12T18:17:24.311Z,5.17
2019-01-12T18:19:54.704Z,4.80
2019-01-12T18:22:24.988Z,4.90
2019-01-12T18:24:55.293Z,5.77
2019-01-12T18:27:25.578Z,4.80
2019-01-12T18:29:55.839Z,4.80
2019-01-12T18:32:26.087Z,5.03
2019-01-12T18:34:56.370Z,5.20
2019-01-12T18:37:26.736Z,4.93
2019-01-12T18:39:57.045Z,4.70
2019-01-12T18:42:27.231Z,3.10
2019-01-12T18:44:57.671Z,3.30
2019-01-12T18:47:27.906Z,3.20
2019-01-12T18:49:58.246Z,3.13
2019-01-12T18:52:28.514Z,3.93
2019-01-12T18:54:58.844Z,3.57
2019-01-12T18:57:29.058Z,3.77
2019-01-12T18:59:59.456Z,4.60
2019-01-12T19:02:29.751Z,5.07
2019-01-12T19:04:59.986Z,6.40
2019-01-12T19:07:30.276Z,6.07
2019-01-12T19:10:00.544Z,6.33
2019-01-12T19:12:32.018Z,7.00
2019-01-12T19:15:02.285Z,7.20
2019-01-12T19:17:32.761Z,8.47
2019-01-12T19:20:03.102Z,8.20
2019-01-12T19:22:33.469Z,9.23
2019-01-12T19:25:03.766Z,9.43
2019-01-12T19:27:37.788Z,10.13
2019-01-12T19:30:11.731Z,10.00
2019-01-12T19:32:42.030Z,11.90
2019-01-12T19:35:12.848Z,12.37
2019-01-12T19:37:43.189Z,13.40
2019-01-12T19:40:20.877Z,14.03
2019-01-12T19:42:51.157Z,13.50
2019-01-12T19:45:21.428Z,15.67
2019-01-12T19:47:56.893Z,15.17
2019-01-12T19:50:27.603Z,14.57
2019-01-12T19:52:58.420Z,15.27
2019-01-12T19:55:28.977Z,15.60
2019-01-12T19:58:02.645Z,14.70
2019-01-12T20:00:34.391Z,16.23
2019-01-12T20:03:06.081Z,15.57
2019-01-12T20:08:25.190Z,13.80
2019-01-12T20:10:55.430Z,15.27
2019-01-12T20:13:26.699Z,14.97
2019-01-12T20:15:57.953Z,15.20
2019-01-12T20:18:28.385Z,14.67
2019-01-12T20:20:58.643Z,14.67
2019-01-12T20:23:28.902Z,15.97
2019-01-12T20:25:59.186Z,15.13
2019-01-12T20:28:29.479Z,14.60
2019-01-12T20:31:44.182Z,14.13
2019-01-12T20:34:40.019Z,14.70
2019-01-12T20:37:34.526Z,14.67
2019-01-12T20:40:35.678Z,14.37
2019-01-12T20:43:21.206Z,14.30
2019-01-12T20:46:32.455Z,14.20
2019-01-12T20:49:20.625Z,11.40
2019-01-12T20:52:41.094Z,10.80
2019-01-12T20:55:45.367Z,10.07
2019-01-12T20:58:52.116Z,8.43
2019-01-12T21:01:42.599Z,5.60
2019-01-12T21:05:06.206Z,5.23
2019-01-12T21:07:58.242Z,4.93
2019-01-12T21:10:49.741Z,5.70
2019-01-12T21:14:01.087Z,6.37
2019-01-12T21:16:40.118Z,6.77
2019-01-12T21:19:10.343Z,7.47
2019-01-12T21:21:40.671Z,9.23
2019-01-12T21:24:10.963Z,9.67
2019-01-12T21:26:41.329Z,12.10
2019-01-12T21:29:11.572Z,13.23
2019-01-12T21:31:42.906Z,14.97
2019-01-12T21:34:14.251Z,12.20
2019-01-12T21:36:45.639Z,11.10
2019-01-12T21:39:15.938Z,11.10
2019-01-12T21:41:48.096Z,10.00
2019-01-12T21:44:18.479Z,8.00
2019-01-12T21:46:48.845Z,6.33
2019-01-12T21:49:19.187Z,6.67
2019-01-12T21:51:49.565Z,6.80
2019-01-12T21:54:19.920Z,7.17
2019-01-12T21:56:50.263Z,7.33
2019-01-12T21:59:20.493Z,8.73
2019-01-12T22:01:50.792Z,9.37
2019-01-12T22:04:21.171Z,8.97
2019-01-12T22:06:51.483Z,10.50
2019-01-12T22:09:21.797Z,10.23
2019-01-12T22:11:52.234Z,11.17
2019-01-12T22:14:22.510Z,13.03
2019-01-12T22:16:52.799Z,12.40
2019-01-12T22:19:23.074Z,13.97
2019-01-12T22:22:14.986Z,16.13
2019-01-12T22:24:45.286Z,15.03
2019-01-12T22:27:15.594Z,15.13
2019-01-12T22:29:49.727Z,14.40
2019-01-12T22:32:17.786Z,13.90
2019-01-12T22:34:48.376Z,14.17
2019-01-12T22:37:18.659Z,14.20
2019-01-12T22:39:51.030Z,14.40
2019-01-12T22:42:22.993Z,15.00
2019-01-12T22:44:53.424Z,14.30
2019-01-12T22:47:23.730Z,15.93
2019-01-12T22:49:54.022Z,15.80
2019-01-12T22:52:24.328Z,15.50
2019-01-12T22:54:54.646Z,17.10
2019-01-12T22:57:24.931Z,19.03
2019-01-12T22:59:57.147Z,19.43
2019-01-12T23:02:28.413Z,20.03
2019-01-12T23:04:58.668Z,19.10
2019-01-12T23:07:28.944Z,19.80
2019-01-12T23:09:59.171Z,20.13
2019-01-12T23:12:29.441Z,19.13
2019-01-12T23:14:59.613Z,19.93
2019-01-12T23:17:29.938Z,19.10
2019-01-12T23:20:00.290Z,18.57
2019-01-12T23:22:30.675Z,18.93
2019-01-12T23:25:00.906Z,19.53
2019-01-12T23:27:31.158Z,19.07
2019-01-12T23:30:04.658Z,19.70
2019-01-12T23:32:33.740Z,19.37
2019-01-12T23:35:04.679Z,19.77
2019-01-12T23:37:35.055Z,19.17
2019-01-12T23:40:05.863Z,19.93
2019-01-12T23:42:36.198Z,19.90
2019-01-12T23:45:07.860Z,19.33
2019-01-12T23:47:38.134Z,20.73
2019-01-12T23:50:08.737Z,21.03
2019-01-12T23:52:39.098Z,20.37
2019-01-12T23:55:09.816Z,19.20
2019-01-12T23:57:40.248Z,20.23
